This is the latest recevied weather packets stored in our database for station/object DD5ZT-13. If no packets are shown the sender has not sent any weather packets the latest 10 day(s).
| Time | Temp. | Humidity | Pressure | Rain* | Wind** | Luminosity | Snow |
|---|---|---|---|---|---|---|---|
| 1777480702 | 18.33° C | 49% | 1032 hPa | 0 mm | - | - | - |
| 1777476912 | 18.89° C | 48% | 1031.9 hPa | 0 mm | - | - | - |
| 1777476683 | 18.89° C | 48% | 1031.9 hPa | 0 mm | - | - | - |
| 1777475783 | 18.89° C | 47% | 1032 hPa | 0 mm | - | - | - |
| 1777475044 | 18.89° C | 47% | 1032.1 hPa | 0 mm | - | - | - |
| 1777474883 | 18.89° C | 47% | 1032 hPa | 0 mm | - | - | - |
| 1777473163 | 18.89° C | 47% | 1032 hPa | 0 mm | - | - | - |
| 1777472497 | 18.89° C | 46% | 1032.1 hPa | 0 mm | - | - | - |
| 1777469483 | 19.44° C | 45% | 1032.2 hPa | 0 mm | - | - | - |
| 1777467683 | 19.44° C | 43% | 1032.2 hPa | 0 mm | - | - | - |
| 1777466254 | 20.56° C | 41% | 1032.2 hPa | 0 mm | - | - | - |
| 1777465042 | 22.22° C | 36% | 1032.3 hPa | 0 mm | - | - | - |
| 1777464396 | 26.11° C | 29% | 1032.2 hPa | 0 mm | - | - | - |
| 1777464081 | 28.33° C | 26% | 1032.2 hPa | 0 mm | - | - | - |
| 1777463180 | 30° C | 24% | 1032.1 hPa | 0 mm | - | - | - |
| 1777462596 | 31.11° C | 23% | 1032.2 hPa | 0 mm | - | - | - |
| 1777461378 | 31.67° C | 23% | 1032.2 hPa | 0 mm | - | - | - |
| 1777458796 | 30° C | 26% | 1032 hPa | 0 mm | - | - | - |
| 1777458135 | 28.33° C | 28% | 1032.1 hPa | 0 mm | - | - | - |
| 1777456873 | 23.33° C | 37% | 1032.2 hPa | 0 mm | - | - | - |
| 1777431497 | 15° C | 64% | 1030.6 hPa | 0 mm | - | - | - |
| 1777430719 | 15° C | 64% | 1030.5 hPa | 0 mm | - | - | - |
| 1777429525 | 15° C | 63% | 1030.4 hPa | 0 mm | - | - | - |
| 1777428785 | 15° C | 63% | 1030.4 hPa | 0 mm | - | - | - |
| 1777428131 | 15° C | 63% | 1030.3 hPa | 0 mm | - | - | - |
* Rain latest hour (hover to see other rain measurements)
** Current wind speed in m/s (hover to see current wind gust speed)